createdAt,value
2022-12-23T00:01:09.439Z,25.65
2022-12-23T00:03:36.458Z,27.40
2022-12-23T00:06:09.457Z,26.42
2022-12-23T00:08:36.891Z,27.60
2022-12-23T00:11:10.252Z,27.77
2022-12-23T00:13:55.811Z,27.67
2022-12-23T00:16:22.897Z,28.13
2022-12-23T00:18:49.972Z,29.40
2022-12-23T00:21:17.856Z,28.50
2022-12-23T00:23:47.645Z,26.85
2022-12-23T00:26:26.747Z,30.83
2022-12-23T00:28:57.800Z,29.13
2022-12-23T00:31:25.608Z,28.60
2022-12-23T00:33:54.388Z,30.08
2022-12-23T00:36:23.426Z,29.80
2022-12-23T00:39:09.125Z,29.85
2022-12-23T00:41:55.048Z,30.85
2022-12-23T00:44:22.346Z,30.15
2022-12-23T00:46:49.916Z,30.38
2022-12-23T00:49:38.370Z,31.23
2022-12-23T00:52:07.757Z,31.52
2022-12-23T00:54:34.746Z,29.75
2022-12-23T00:57:02.162Z,30.88
2022-12-23T00:59:30.049Z,31.10
2022-12-23T01:02:15.784Z,32.90
2022-12-23T01:05:01.449Z,33.90
2022-12-23T01:07:28.272Z,32.47
2022-12-23T01:09:55.393Z,35.42
2022-12-23T01:12:22.260Z,35.30
2022-12-23T01:14:49.364Z,33.95
2022-12-23T01:17:16.386Z,32.60
2022-12-23T01:19:43.892Z,33.53
2022-12-23T01:22:11.392Z,34.08
2022-12-23T01:24:38.288Z,34.20
2022-12-23T01:27:05.213Z,34.67
2022-12-23T01:29:32.235Z,32.95
2022-12-23T01:31:59.119Z,33.50
2022-12-23T01:34:31.076Z,31.58
2022-12-23T01:37:01.414Z,33.88
2022-12-23T01:39:28.328Z,32.72
2022-12-23T01:42:14.076Z,33.00
2022-12-23T01:45:00.754Z,30.70
2022-12-23T01:47:50.520Z,30.30
2022-12-23T01:50:38.490Z,29.15
2022-12-23T01:53:26.478Z,29.27
2022-12-23T01:56:12.844Z,30.55
2022-12-23T01:58:49.053Z,29.23
2022-12-23T02:01:35.163Z,33.03
2022-12-23T02:04:06.044Z,32.95
2022-12-23T02:06:58.195Z,32.22
2022-12-23T02:09:31.636Z,31.67
2022-12-23T02:12:01.341Z,29.95
2022-12-23T02:15:05.653Z,30.10
2022-12-23T02:17:41.681Z,28.02
2022-12-23T02:20:22.895Z,30.85
2022-12-23T02:22:58.654Z,29.20
2022-12-23T02:25:53.203Z,31.60
2022-12-23T02:28:32.379Z,29.30
2022-12-23T02:31:11.764Z,31.30
2022-12-23T02:33:41.450Z,30.42
2022-12-23T02:36:17.934Z,31.58
2022-12-23T02:38:53.989Z,29.90
2022-12-23T02:41:50.857Z,30.33
2022-12-23T02:44:36.495Z,31.00
2022-12-23T02:47:12.071Z,32.42
2022-12-23T02:49:42.447Z,30.17
2022-12-23T02:52:14.373Z,30.20
2022-12-23T02:55:13.588Z,31.15
2022-12-23T02:57:45.722Z,32.17
2022-12-23T03:00:15.420Z,30.65
2022-12-23T03:02:43.698Z,31.83
2022-12-23T03:05:47.034Z,32.55
2022-12-23T03:08:39.515Z,32.38
2022-12-23T03:11:10.751Z,32.92
2022-12-23T03:14:21.762Z,34.08
2022-12-23T03:17:08.832Z,32.00
2022-12-23T03:20:25.875Z,32.50
2022-12-23T03:23:19.655Z,32.58
2022-12-23T03:25:57.974Z,31.88
2022-12-23T03:28:35.366Z,34.42
2022-12-23T03:31:04.038Z,34.80
2022-12-23T03:33:43.808Z,33.13
2022-12-23T03:36:17.962Z,33.20
2022-12-23T03:38:46.033Z,33.03
2022-12-23T03:41:35.917Z,36.15
2022-12-23T03:44:34.917Z,35.40
2022-12-23T03:47:05.107Z,33.60
2022-12-23T03:49:38.012Z,35.83
2022-12-23T03:52:21.006Z,32.85
2022-12-23T03:54:58.120Z,33.22
2022-12-23T03:57:50.579Z,33.65
2022-12-23T04:00:17.577Z,35.72
2022-12-23T04:03:09.126Z,33.33
2022-12-23T04:05:41.419Z,34.08
2022-12-23T04:08:46.245Z,33.88
2022-12-23T04:11:13.638Z,32.92
2022-12-23T04:13:40.711Z,35.42
2022-12-23T04:16:08.311Z,34.03
2022-12-23T04:18:35.209Z,34.58
2022-12-23T04:21:02.181Z,35.60
2022-12-23T04:23:29.473Z,33.78
2022-12-23T04:25:56.449Z,31.90
2022-12-23T04:28:23.336Z,32.05
2022-12-23T04:30:50.126Z,31.88
2022-12-23T04:33:17.006Z,30.70
2022-12-23T04:35:43.899Z,29.73
2022-12-23T04:38:10.819Z,29.33
2022-12-23T04:40:37.808Z,29.80
2022-12-23T04:43:04.701Z,30.55
2022-12-23T04:45:32.672Z,28.90
2022-12-23T04:47:59.874Z,28.70
2022-12-23T04:50:26.671Z,28.13
2022-12-23T04:52:53.547Z,29.70
2022-12-23T04:55:20.501Z,28.73
2022-12-23T04:57:47.617Z,29.73
2022-12-23T05:00:16.269Z,29.17
2022-12-23T05:02:43.642Z,32.40
2022-12-23T05:05:10.747Z,30.00
2022-12-23T05:07:37.559Z,27.98
2022-12-23T05:10:04.988Z,31.35
2022-12-23T05:12:32.046Z,32.92
2022-12-23T05:14:59.145Z,30.65
2022-12-23T05:17:26.178Z,28.75
2022-12-23T05:19:53.183Z,31.42
2022-12-23T05:22:20.066Z,29.17
2022-12-23T05:24:47.685Z,30.13
2022-12-23T05:27:14.665Z,31.35
2022-12-23T05:29:41.724Z,30.10
2022-12-23T05:32:08.916Z,33.97
2022-12-23T05:34:36.049Z,35.63
2022-12-23T05:37:03.026Z,35.97
2022-12-23T05:39:29.909Z,37.60
2022-12-23T05:41:56.776Z,38.70
2022-12-23T05:44:23.780Z,38.88
2022-12-23T05:46:53.598Z,40.72
2022-12-23T05:49:22.887Z,40.75
2022-12-23T05:51:49.927Z,40.90
2022-12-23T05:54:16.949Z,42.42
2022-12-23T05:56:44.031Z,41.30
2022-12-23T05:59:11.365Z,43.70
2022-12-23T06:01:38.566Z,50.08
2022-12-23T06:04:05.805Z,47.70
2022-12-23T06:06:32.951Z,48.97
2022-12-23T06:09:00.362Z,49.10
2022-12-23T06:11:28.343Z,44.97
2022-12-23T06:13:55.206Z,46.05
2022-12-23T06:16:22.224Z,50.53
2022-12-23T06:18:49.260Z,53.35
2022-12-23T06:21:16.172Z,54.05
2022-12-23T06:23:43.172Z,51.28
2022-12-23T06:26:10.174Z,52.38
2022-12-23T06:28:37.219Z,53.38
2022-12-23T06:31:04.471Z,53.17
2022-12-23T06:33:31.384Z,53.78
2022-12-23T06:35:58.463Z,51.55
2022-12-23T06:38:25.501Z,53.88
2022-12-23T06:40:52.283Z,61.15
2022-12-23T06:43:19.097Z,62.60
2022-12-23T06:45:49.497Z,64.30
2022-12-23T06:48:16.886Z,57.80
2022-12-23T06:50:46.877Z,60.35
2022-12-23T06:53:14.601Z,57.92
2022-12-23T06:55:41.692Z,53.80
2022-12-23T06:58:08.697Z,49.92
2022-12-23T07:00:37.197Z,48.83
2022-12-23T07:03:06.286Z,44.13
2022-12-23T07:05:37.368Z,41.83
2022-12-23T07:08:05.510Z,41.33
2022-12-23T07:10:33.505Z,43.70
2022-12-23T07:13:03.006Z,42.22
2022-12-23T07:15:30.207Z,42.63
2022-12-23T07:17:57.085Z,41.22
2022-12-23T07:20:24.086Z,41.33
2022-12-23T07:22:51.132Z,45.03
2022-12-23T07:25:18.003Z,38.55
2022-12-23T07:27:44.835Z,40.97
2022-12-23T07:30:12.040Z,40.17
2022-12-23T07:32:38.956Z,40.25
2022-12-23T07:35:06.563Z,38.60
2022-12-23T07:37:33.581Z,36.03
2022-12-23T07:40:06.518Z,35.90
2022-12-23T07:42:50.918Z,37.65
2022-12-23T07:45:17.740Z,35.78
2022-12-23T07:47:44.640Z,38.20
2022-12-23T07:50:12.537Z,38.45
2022-12-23T07:52:40.113Z,37.03
2022-12-23T07:55:07.507Z,35.17
2022-12-23T07:57:38.293Z,36.58
2022-12-23T08:00:07.533Z,36.08
2022-12-23T08:02:34.531Z,33.95
2022-12-23T08:05:01.565Z,34.63
2022-12-23T08:07:28.633Z,36.67
2022-12-23T08:09:55.427Z,40.00
2022-12-23T08:12:22.359Z,43.92
2022-12-23T08:14:50.640Z,45.20
2022-12-23T08:17:17.583Z,46.40
2022-12-23T08:19:44.526Z,50.53
2022-12-23T08:22:11.461Z,49.15
2022-12-23T08:24:38.272Z,51.88
2022-12-23T08:27:05.102Z,52.10
2022-12-23T08:29:36.242Z,49.40
2022-12-23T08:32:03.647Z,52.35
2022-12-23T08:34:30.445Z,53.00
2022-12-23T08:36:57.414Z,65.35
2022-12-23T08:39:26.662Z,66.53
2022-12-23T08:41:53.891Z,65.07
2022-12-23T08:44:21.654Z,59.15
2022-12-23T08:46:48.741Z,58.75
2022-12-23T08:49:15.707Z,67.97
2022-12-23T08:51:42.581Z,67.60
2022-12-23T08:54:11.853Z,58.05
2022-12-23T08:56:41.519Z,66.40
2022-12-23T08:59:19.304Z,70.80
2022-12-23T09:01:48.052Z,67.03
2022-12-23T09:04:15.317Z,64.70
2022-12-23T09:06:43.254Z,61.63
2022-12-23T09:09:12.412Z,54.50
2022-12-23T09:11:39.207Z,61.90
2022-12-23T09:14:08.587Z,50.90
2022-12-23T09:16:36.168Z,50.30
2022-12-23T09:19:03.420Z,55.25
2022-12-23T09:21:30.248Z,52.67
2022-12-23T09:23:57.011Z,51.53
2022-12-23T09:26:26.357Z,60.70
2022-12-23T09:28:54.035Z,67.75
2022-12-23T09:31:21.658Z,72.25
2022-12-23T09:33:50.551Z,67.18
2022-12-23T09:36:18.422Z,65.60
2022-12-23T09:38:45.611Z,64.97
2022-12-23T09:41:20.772Z,64.93
2022-12-23T09:44:25.072Z,63.05
2022-12-23T09:47:04.071Z,60.40
2022-12-23T09:49:31.374Z,57.42
2022-12-23T09:52:02.825Z,58.45
2022-12-23T09:54:37.984Z,59.00
2022-12-23T09:57:26.066Z,53.08
2022-12-23T10:00:20.184Z,54.65
2022-12-23T10:03:16.601Z,50.88
2022-12-23T10:06:12.938Z,49.88
2022-12-23T10:08:44.552Z,42.92
2022-12-23T10:11:47.339Z,46.67
2022-12-23T10:14:27.946Z,47.63
2022-12-23T10:17:12.327Z,44.85
2022-12-23T10:19:43.518Z,46.42
2022-12-23T10:22:37.620Z,46.17
2022-12-23T10:25:24.773Z,43.80
2022-12-23T10:27:51.670Z,43.22
2022-12-23T10:30:51.465Z,40.20
2022-12-23T10:33:22.609Z,40.38
2022-12-23T10:36:09.553Z,38.92
2022-12-23T10:38:54.971Z,39.70
2022-12-23T10:41:40.778Z,44.95
2022-12-23T10:44:37.958Z,40.45
2022-12-23T10:47:13.671Z,42.50
2022-12-23T10:50:29.006Z,41.63
2022-12-23T10:52:57.892Z,48.90
2022-12-23T10:55:34.030Z,42.05
2022-12-23T10:58:20.661Z,41.83
2022-12-23T11:00:59.848Z,39.05
2022-12-23T11:03:31.663Z,37.88
2022-12-23T11:06:00.588Z,37.47
2022-12-23T11:08:30.721Z,37.45
2022-12-23T11:11:00.231Z,34.63
2022-12-23T11:13:40.803Z,35.05
2022-12-23T11:16:28.931Z,34.40
2022-12-23T11:19:01.104Z,29.05
2022-12-23T11:21:29.886Z,25.23
2022-12-23T11:24:10.202Z,23.50
2022-12-23T11:26:37.260Z,25.27
2022-12-23T11:29:18.477Z,24.40
2022-12-23T11:31:45.514Z,29.55
2022-12-23T11:34:22.632Z,30.02
2022-12-23T11:37:03.679Z,25.25
2022-12-23T11:39:36.441Z,23.40
2022-12-23T11:42:15.641Z,26.38
2022-12-23T11:44:48.690Z,25.63
2022-12-23T11:47:33.707Z,30.15
2022-12-23T11:50:03.808Z,25.45
2022-12-23T11:52:33.513Z,23.77
2022-12-23T11:55:02.458Z,26.90
2022-12-23T11:57:37.343Z,30.90
2022-12-23T12:00:07.125Z,30.27
2022-12-23T12:02:43.175Z,29.73
2022-12-23T12:05:38.896Z,29.00
2022-12-23T12:08:21.620Z,28.38
2022-12-23T12:10:52.598Z,30.90
2022-12-23T12:13:32.424Z,32.72
2022-12-23T12:16:24.214Z,32.07
2022-12-23T12:18:55.701Z,33.00
2022-12-23T12:21:29.239Z,32.50
2022-12-23T12:24:23.441Z,32.03
2022-12-23T12:26:54.292Z,33.30
2022-12-23T12:29:27.063Z,36.80
2022-12-23T12:31:57.031Z,37.38
2022-12-23T12:34:57.025Z,40.92
2022-12-23T12:37:35.809Z,37.20
2022-12-23T12:40:37.531Z,38.58
2022-12-23T12:43:07.091Z,38.83
2022-12-23T12:45:42.134Z,44.92
2022-12-23T12:48:24.069Z,41.42
2022-12-23T12:51:15.518Z,41.08
2022-12-23T12:54:06.613Z,44.15
2022-12-23T12:56:57.225Z,44.88
2022-12-23T12:59:31.064Z,39.75
2022-12-23T13:02:28.515Z,41.92
2022-12-23T13:05:32.845Z,40.95
2022-12-23T13:08:05.191Z,36.58
2022-12-23T13:10:47.214Z,40.45
2022-12-23T13:13:52.239Z,39.58
2022-12-23T13:16:28.869Z,33.97
2022-12-23T13:19:04.274Z,33.65
2022-12-23T13:21:51.105Z,32.25
2022-12-23T13:24:43.662Z,31.67
2022-12-23T13:27:22.222Z,32.63
2022-12-23T13:30:13.215Z,31.38
2022-12-23T13:32:59.808Z,28.77
2022-12-23T13:35:39.102Z,24.60
2022-12-23T13:38:41.443Z,25.92
2022-12-23T13:41:48.977Z,25.90
2022-12-23T13:44:18.794Z,26.48
2022-12-23T13:47:06.729Z,25.02
2022-12-23T13:49:56.188Z,26.55
2022-12-23T13:52:47.642Z,32.05
2022-12-23T13:55:52.924Z,30.27
2022-12-23T13:58:33.271Z,33.58
2022-12-23T14:01:09.275Z,27.40
2022-12-23T14:03:38.353Z,39.97
2022-12-23T14:06:24.205Z,35.65
2022-12-23T14:08:52.711Z,39.17
2022-12-23T14:11:19.661Z,44.80
2022-12-23T14:13:58.701Z,44.33
2022-12-23T14:16:58.156Z,38.90
2022-12-23T14:20:03.450Z,42.40
2022-12-23T14:22:48.637Z,34.85
2022-12-23T14:25:27.161Z,31.75
2022-12-23T14:28:12.453Z,31.63
2022-12-23T14:30:44.978Z,30.80
2022-12-23T14:33:26.993Z,30.65
2022-12-23T14:36:13.681Z,32.75
2022-12-23T14:38:41.029Z,30.98
2022-12-23T14:41:37.795Z,31.95
2022-12-23T14:44:22.021Z,31.30
2022-12-23T14:46:49.288Z,32.22
2022-12-23T14:49:43.042Z,33.30
2022-12-23T14:52:44.387Z,33.90
2022-12-23T14:55:31.976Z,34.78
2022-12-23T14:58:20.079Z,34.63
2022-12-23T15:00:52.061Z,33.90
2022-12-23T15:03:20.181Z,35.92
2022-12-23T15:05:47.477Z,35.88
2022-12-23T15:08:38.134Z,37.53
2022-12-23T15:11:06.945Z,37.45
2022-12-23T15:13:34.139Z,38.17
2022-12-23T15:16:02.205Z,39.08
2022-12-23T15:18:29.756Z,41.05
2022-12-23T15:21:10.716Z,43.72
2022-12-23T15:23:37.505Z,42.97
2022-12-23T15:26:04.345Z,44.97
2022-12-23T15:28:39.219Z,45.30
2022-12-23T15:31:07.652Z,44.83
2022-12-23T15:34:02.097Z,45.47
2022-12-23T15:36:30.883Z,47.28
2022-12-23T15:38:59.781Z,45.75
2022-12-23T15:41:29.356Z,43.10
2022-12-23T15:44:02.847Z,45.90
2022-12-23T15:46:32.298Z,45.15
2022-12-23T15:49:01.827Z,46.10
2022-12-23T15:54:34.149Z,49.95
2022-12-23T15:57:16.132Z,49.90
2022-12-23T15:59:54.591Z,49.85
2022-12-23T16:05:43.358Z,52.40
2022-12-23T16:08:26.576Z,54.45
2022-12-23T16:11:23.283Z,55.42
2022-12-23T16:14:03.477Z,57.30
2022-12-23T16:16:41.289Z,59.10
2022-12-23T16:19:39.584Z,58.33
2022-12-23T16:22:26.408Z,54.10
2022-12-23T16:25:20.547Z,56.55
2022-12-23T16:27:58.744Z,55.63
2022-12-23T16:30:35.705Z,57.08
2022-12-23T16:33:07.043Z,58.47
2022-12-23T16:35:36.807Z,57.95
2022-12-23T16:38:26.746Z,61.40
2022-12-23T16:40:55.956Z,61.10
2022-12-23T16:43:25.617Z,63.03
2022-12-23T16:45:55.924Z,62.93
2022-12-23T16:48:39.245Z,61.97
2022-12-23T16:51:14.296Z,62.15
2022-12-23T16:53:41.465Z,61.63
2022-12-23T16:56:17.370Z,60.80
2022-12-23T16:58:44.814Z,61.90
2022-12-23T17:01:15.180Z,62.25
2022-12-23T17:03:42.094Z,64.43
2022-12-23T17:06:14.415Z,66.88
2022-12-23T17:08:42.038Z,64.88
2022-12-23T17:11:16.202Z,65.82
2022-12-23T17:13:43.262Z,62.55
2022-12-23T17:16:15.715Z,68.55
2022-12-23T17:18:42.587Z,65.75
2022-12-23T17:21:26.076Z,65.65
2022-12-23T17:23:54.397Z,63.22
2022-12-23T17:26:22.662Z,61.47
2022-12-23T17:28:49.935Z,63.40
2022-12-23T17:31:25.998Z,67.18
2022-12-23T17:33:54.538Z,64.30
2022-12-23T17:36:21.825Z,66.45
2022-12-23T17:38:49.469Z,66.60
2022-12-23T17:41:31.188Z,69.07
2022-12-23T17:43:58.754Z,65.82
2022-12-23T17:46:26.472Z,65.35
2022-12-23T17:48:53.631Z,63.22
2022-12-23T17:51:23.167Z,64.05
2022-12-23T17:53:56.891Z,64.70
2022-12-23T17:56:26.425Z,69.43
2022-12-23T17:58:53.598Z,65.35
2022-12-23T18:01:27.442Z,67.60
2022-12-23T18:03:55.848Z,67.25
2022-12-23T18:06:24.361Z,69.55
2022-12-23T18:08:51.282Z,72.20
2022-12-23T18:11:39.450Z,71.88
2022-12-23T18:14:13.053Z,71.40
2022-12-23T18:16:44.909Z,72.80
2022-12-23T18:19:20.604Z,73.32
2022-12-23T18:21:48.028Z,71.13
2022-12-23T18:24:15.531Z,70.38
2022-12-23T18:26:43.007Z,73.75
2022-12-23T18:29:10.397Z,74.90
2022-12-23T18:31:46.721Z,69.50
2022-12-23T18:34:17.982Z,72.57
2022-12-23T18:36:45.524Z,72.68
2022-12-23T18:39:12.502Z,74.10
2022-12-23T18:41:39.416Z,73.93
2022-12-23T18:44:06.223Z,73.18
2022-12-23T18:46:33.133Z,72.82
2022-12-23T18:49:00.159Z,74.15
2022-12-23T18:51:26.962Z,71.55
2022-12-23T18:53:53.973Z,71.32
2022-12-23T18:56:24.121Z,72.47
2022-12-23T18:58:50.966Z,71.70
2022-12-23T19:01:19.122Z,67.18
2022-12-23T19:03:46.636Z,69.20
2022-12-23T19:06:14.733Z,68.50
2022-12-23T19:08:43.161Z,71.97
2022-12-23T19:11:15.284Z,73.00
2022-12-23T19:13:42.105Z,76.75
2022-12-23T19:16:13.247Z,75.30
2022-12-23T19:18:40.128Z,76.00
2022-12-23T19:21:06.965Z,75.00
2022-12-23T19:23:33.775Z,73.68
2022-12-23T19:26:00.661Z,77.53
2022-12-23T19:28:30.092Z,73.95
2022-12-23T19:31:00.152Z,71.28
2022-12-23T19:33:27.977Z,69.93
2022-12-23T19:35:54.834Z,73.70
2022-12-23T19:38:21.668Z,86.50
2022-12-23T19:40:57.554Z,85.15
2022-12-23T19:43:24.448Z,72.88
2022-12-23T19:46:17.732Z,72.72
2022-12-23T19:48:51.549Z,72.32
2022-12-23T19:51:18.521Z,67.15
2022-12-23T19:53:46.099Z,66.63
2022-12-23T19:56:15.909Z,68.15
2022-12-23T19:58:44.155Z,68.80
2022-12-23T20:01:19.355Z,69.13
2022-12-23T20:03:47.604Z,69.15
2022-12-23T20:06:18.401Z,68.88
2022-12-23T20:08:45.450Z,66.82
2022-12-23T20:11:15.568Z,68.22
2022-12-23T20:13:42.444Z,68.03
2022-12-23T20:16:09.690Z,70.63
2022-12-23T20:18:37.130Z,68.15
2022-12-23T20:21:05.009Z,68.80
2022-12-23T20:23:31.891Z,67.80
2022-12-23T20:25:58.857Z,70.38
2022-12-23T20:28:25.744Z,68.47
2022-12-23T20:31:20.199Z,68.20
2022-12-23T20:33:49.157Z,66.82
2022-12-23T20:36:18.968Z,65.47
2022-12-23T20:38:47.373Z,68.45
2022-12-23T20:41:16.927Z,65.60
2022-12-23T20:43:46.122Z,66.63
2022-12-23T20:46:20.477Z,67.80
2022-12-23T20:48:48.205Z,65.03
2022-12-23T20:51:19.322Z,63.88
2022-12-23T20:53:46.479Z,62.45
2022-12-23T20:56:16.605Z,65.93
2022-12-23T20:58:56.121Z,64.13
2022-12-23T21:01:31.716Z,63.75
2022-12-23T21:04:01.270Z,64.90
2022-12-23T21:06:29.785Z,63.60
2022-12-23T21:08:59.476Z,63.53
2022-12-23T21:11:34.506Z,69.37
2022-12-23T21:14:06.467Z,71.40
2022-12-23T21:16:35.726Z,66.82
2022-12-23T21:19:03.645Z,68.68
2022-12-23T21:21:31.788Z,66.28
2022-12-23T21:24:01.592Z,68.55
2022-12-23T21:26:30.949Z,81.90
2022-12-23T21:28:59.473Z,97.00
2022-12-23T21:31:27.849Z,87.35
2022-12-23T21:33:55.066Z,95.82
2022-12-23T21:36:24.343Z,107.10
2022-12-23T21:38:51.767Z,110.35
2022-12-23T21:41:24.579Z,101.03
2022-12-23T21:43:51.933Z,109.70
2022-12-23T21:46:21.556Z,119.05
2022-12-23T21:48:51.073Z,111.97
2022-12-23T21:51:23.651Z,115.32
2022-12-23T21:53:53.125Z,107.55
2022-12-23T21:56:26.870Z,110.22
2022-12-23T21:58:58.814Z,109.97
2022-12-23T22:01:26.618Z,102.03
2022-12-23T22:03:54.652Z,110.10
2022-12-23T22:06:27.427Z,107.18
2022-12-23T22:08:57.758Z,108.22
2022-12-23T22:11:27.371Z,113.07
2022-12-23T22:13:56.598Z,102.93
2022-12-23T22:16:26.143Z,102.50
2022-12-23T22:18:54.566Z,96.85
2022-12-23T22:21:23.806Z,86.80
2022-12-23T22:24:02.452Z,87.65
2022-12-23T22:26:32.754Z,91.40
2022-12-23T22:29:01.907Z,86.03
2022-12-23T22:31:34.982Z,82.85
2022-12-23T22:34:02.395Z,75.72
2022-12-23T22:36:33.742Z,74.60
2022-12-23T22:39:24.203Z,83.20
2022-12-23T22:42:46.197Z,79.07
2022-12-23T22:45:13.435Z,80.55
2022-12-23T22:47:40.767Z,76.53
2022-12-23T22:50:09.364Z,78.38
2022-12-23T22:52:41.109Z,74.90
2022-12-23T22:55:08.595Z,67.68
2022-12-23T22:57:35.506Z,66.72
2022-12-23T23:00:07.892Z,72.38
2022-12-23T23:02:38.689Z,70.72
2022-12-23T23:05:12.301Z,74.78
2022-12-23T23:07:40.358Z,68.85
2022-12-23T23:10:10.489Z,71.13
2022-12-23T23:12:37.387Z,71.30
2022-12-23T23:15:41.834Z,70.30
2022-12-23T23:21:35.086Z,63.58
2022-12-23T23:24:02.045Z,62.47
2022-12-23T23:26:29.089Z,66.20
2022-12-23T23:33:03.918Z,63.53
2022-12-23T23:35:31.451Z,62.28
2022-12-23T23:37:59.815Z,61.75
2022-12-23T23:40:27.912Z,63.97
2022-12-23T23:42:55.155Z,60.15
2022-12-23T23:45:22.962Z,58.05
2022-12-23T23:47:50.343Z,60.13
2022-12-23T23:50:19.325Z,54.95
2022-12-23T23:52:46.343Z,55.38
2022-12-23T23:55:13.479Z,55.80
2022-12-23T23:57:40.820Z,55.28
